sensor_id;sensor_type;location;lat;lon;timestamp;pressure;altitude;pressure_sealevel;temperature;humidity
44751;BME280;30477;48.224;11.470;2022-09-25T00:00:26;95701.53;;;12.22;80.83
44751;BME280;30477;48.224;11.470;2022-09-25T00:02:51;95703.03;;;12.24;81.16
44751;BME280;30477;48.224;11.470;2022-09-25T00:05:17;95695.25;;;12.24;81.08
44751;BME280;30477;48.224;11.470;2022-09-25T00:07:42;95703.16;;;12.14;80.86
44751;BME280;30477;48.224;11.470;2022-09-25T00:10:07;95701.81;;;12.02;81.15
44751;BME280;30477;48.224;11.470;2022-09-25T00:12:32;95701.03;;;12.10;81.61
44751;BME280;30477;48.224;11.470;2022-09-25T00:14:58;95699.41;;;12.17;81.95
44751;BME280;30477;48.224;11.470;2022-09-25T00:17:23;95690.97;;;12.15;82.10
44751;BME280;30477;48.224;11.470;2022-09-25T00:19:48;95694.25;;;12.25;82.21
44751;BME280;30477;48.224;11.470;2022-09-25T00:22:17;95688.28;;;12.41;82.38
44751;BME280;30477;48.224;11.470;2022-09-25T00:24:42;95683.25;;;12.48;82.35
44751;BME280;30477;48.224;11.470;2022-09-25T00:27:07;95682.13;;;12.50;81.93
44751;BME280;30477;48.224;11.470;2022-09-25T00:29:34;95687.31;;;12.42;81.82
44751;BME280;30477;48.224;11.470;2022-09-25T00:32:00;95678.56;;;12.43;81.87
44751;BME280;30477;48.224;11.470;2022-09-25T00:34:25;95672.88;;;12.39;81.39
44751;BME280;30477;48.224;11.470;2022-09-25T00:36:50;95669.78;;;12.36;81.47
44751;BME280;30477;48.224;11.470;2022-09-25T00:39:16;95674.28;;;12.26;81.29
44751;BME280;30477;48.224;11.470;2022-09-25T00:41:41;95677.69;;;12.26;81.79
44751;BME280;30477;48.224;11.470;2022-09-25T00:44:42;95670.41;;;12.22;81.77
44751;BME280;30477;48.224;11.470;2022-09-25T00:46:51;95663.59;;;12.21;81.64
44751;BME280;30477;48.224;11.470;2022-09-25T00:49:21;95656.94;;;12.26;82.35
44751;BME280;30477;48.224;11.470;2022-09-25T00:51:53;95655.50;;;12.32;82.10
44751;BME280;30477;48.224;11.470;2022-09-25T00:54:26;95658.91;;;12.24;81.66
44751;BME280;30477;48.224;11.470;2022-09-25T00:56:52;95655.66;;;12.22;81.81
44751;BME280;30477;48.224;11.470;2022-09-25T00:59:23;95657.41;;;12.13;81.39
44751;BME280;30477;48.224;11.470;2022-09-25T01:01:48;95656.75;;;12.11;81.89
44751;BME280;30477;48.224;11.470;2022-09-25T01:04:14;95657.75;;;12.10;81.84
44751;BME280;30477;48.224;11.470;2022-09-25T01:06:40;95660.66;;;11.99;81.59
44751;BME280;30477;48.224;11.470;2022-09-25T01:09:05;95655.44;;;12.07;81.74
44751;BME280;30477;48.224;11.470;2022-09-25T01:11:31;95658.03;;;11.91;81.80
44751;BME280;30477;48.224;11.470;2022-09-25T01:13:57;95662.97;;;11.84;81.76
44751;BME280;30477;48.224;11.470;2022-09-25T01:18:56;95653.44;;;11.85;82.12
44751;BME280;30477;48.224;11.470;2022-09-25T01:21:32;95658.13;;;11.81;81.73
44751;BME280;30477;48.224;11.470;2022-09-25T01:24:03;95655.50;;;11.73;81.73
44751;BME280;30477;48.224;11.470;2022-09-25T01:36:48;95646.13;;;11.80;82.38
44751;BME280;30477;48.224;11.470;2022-09-25T01:39:20;95645.63;;;11.76;82.11
44751;BME280;30477;48.224;11.470;2022-09-25T01:41:51;95636.69;;;11.71;82.33
44751;BME280;30477;48.224;11.470;2022-09-25T01:44:25;95643.13;;;11.58;81.89
44751;BME280;30477;48.224;11.470;2022-09-25T01:46:52;95639.75;;;11.66;82.40
44751;BME280;30477;48.224;11.470;2022-09-25T01:49:21;95643.97;;;11.59;82.26
44751;BME280;30477;48.224;11.470;2022-09-25T01:51:50;95640.53;;;11.58;82.49
44751;BME280;30477;48.224;11.470;2022-09-25T01:54:36;95629.06;;;11.69;82.69
44751;BME280;30477;48.224;11.470;2022-09-25T01:57:13;95639.25;;;11.63;82.53
44751;BME280;30477;48.224;11.470;2022-09-25T01:59:59;95637.50;;;11.71;82.33
44751;BME280;30477;48.224;11.470;2022-09-25T02:02:30;95641.38;;;11.59;82.41
44751;BME280;30477;48.224;11.470;2022-09-25T02:05:13;95639.69;;;11.50;81.95
44751;BME280;30477;48.224;11.470;2022-09-25T02:07:47;95647.44;;;11.42;82.72
44751;BME280;30477;48.224;11.470;2022-09-25T02:10:15;95647.13;;;11.45;82.81
44751;BME280;30477;48.224;11.470;2022-09-25T02:12:44;95646.72;;;11.57;82.35
44751;BME280;30477;48.224;11.470;2022-09-25T02:15:11;95650.38;;;11.47;82.32
44751;BME280;30477;48.224;11.470;2022-09-25T02:17:43;95653.41;;;11.34;82.50
44751;BME280;30477;48.224;11.470;2022-09-25T02:20:29;95654.19;;;11.26;82.61
44751;BME280;30477;48.224;11.470;2022-09-25T02:23:16;95660.91;;;11.19;82.75
44751;BME280;30477;48.224;11.470;2022-09-25T02:28:26;95655.06;;;11.09;82.84
44751;BME280;30477;48.224;11.470;2022-09-25T02:30:52;95661.91;;;11.18;83.31
44751;BME280;30477;48.224;11.470;2022-09-25T02:33:18;95647.69;;;11.22;83.09
44751;BME280;30477;48.224;11.470;2022-09-25T02:35:43;95657.75;;;11.33;83.34
44751;BME280;30477;48.224;11.470;2022-09-25T02:38:09;95652.09;;;11.38;83.13
44751;BME280;30477;48.224;11.470;2022-09-25T02:40:47;95656.50;;;11.37;83.07
44751;BME280;30477;48.224;11.470;2022-09-25T02:45:44;95667.84;;;11.36;83.09
44751;BME280;30477;48.224;11.470;2022-09-25T02:51:04;95662.00;;;11.34;82.98
44751;BME280;30477;48.224;11.470;2022-09-25T02:53:35;95654.06;;;11.36;82.57
44751;BME280;30477;48.224;11.470;2022-09-25T02:56:02;95647.94;;;11.45;83.25
44751;BME280;30477;48.224;11.470;2022-09-25T02:58:30;95651.19;;;11.47;82.96
44751;BME280;30477;48.224;11.470;2022-09-25T03:00:58;95640.34;;;11.52;82.80
44751;BME280;30477;48.224;11.470;2022-09-25T03:03:24;95642.22;;;11.68;83.07
44751;BME280;30477;48.224;11.470;2022-09-25T03:05:50;95634.56;;;11.66;82.25
44751;BME280;30477;48.224;11.470;2022-09-25T03:08:18;95630.72;;;11.70;82.68
44751;BME280;30477;48.224;11.470;2022-09-25T03:11:10;95626.47;;;11.69;82.20
44751;BME280;30477;48.224;11.470;2022-09-25T03:13:36;95624.22;;;11.66;82.11
44751;BME280;30477;48.224;11.470;2022-09-25T03:16:04;95617.38;;;11.65;81.89
44751;BME280;30477;48.224;11.470;2022-09-25T03:18:30;95616.38;;;11.50;81.73
44751;BME280;30477;48.224;11.470;2022-09-25T03:20:56;95621.53;;;11.42;81.72
44751;BME280;30477;48.224;11.470;2022-09-25T03:23:21;95620.88;;;11.40;81.75
44751;BME280;30477;48.224;11.470;2022-09-25T03:25:46;95631.56;;;11.36;81.94
44751;BME280;30477;48.224;11.470;2022-09-25T03:28:12;95626.84;;;11.32;81.92
44751;BME280;30477;48.224;11.470;2022-09-25T03:30:38;95628.28;;;11.26;81.96
44751;BME280;30477;48.224;11.470;2022-09-25T03:33:08;95626.59;;;11.17;82.42
44751;BME280;30477;48.224;11.470;2022-09-25T03:35:35;95621.38;;;11.09;82.24
44751;BME280;30477;48.224;11.470;2022-09-25T03:38:00;95616.00;;;11.02;82.71
44751;BME280;30477;48.224;11.470;2022-09-25T03:40:26;95617.16;;;11.08;82.57
44751;BME280;30477;48.224;11.470;2022-09-25T03:42:51;95613.34;;;11.20;83.21
44751;BME280;30477;48.224;11.470;2022-09-25T03:45:16;95608.16;;;11.20;82.98
44751;BME280;30477;48.224;11.470;2022-09-25T03:47:41;95607.03;;;11.23;82.85
44751;BME280;30477;48.224;11.470;2022-09-25T03:50:07;95605.28;;;11.31;83.15
44751;BME280;30477;48.224;11.470;2022-09-25T03:52:33;95599.25;;;11.23;82.89
44751;BME280;30477;48.224;11.470;2022-09-25T03:54:58;95614.94;;;11.21;82.65
44751;BME280;30477;48.224;11.470;2022-09-25T03:57:23;95611.69;;;11.19;82.82
44751;BME280;30477;48.224;11.470;2022-09-25T03:59:49;95611.69;;;11.19;82.55
44751;BME280;30477;48.224;11.470;2022-09-25T04:02:14;95613.00;;;11.15;82.97
44751;BME280;30477;48.224;11.470;2022-09-25T04:04:39;95609.78;;;11.21;83.15
44751;BME280;30477;48.224;11.470;2022-09-25T04:07:05;95604.59;;;11.21;83.21
44751;BME280;30477;48.224;11.470;2022-09-25T04:09:30;95608.16;;;11.20;82.78
44751;BME280;30477;48.224;11.470;2022-09-25T04:11:56;95616.03;;;11.10;82.57
44751;BME280;30477;48.224;11.470;2022-09-25T04:14:21;95605.69;;;11.10;82.56
44751;BME280;30477;48.224;11.470;2022-09-25T04:16:47;95600.88;;;11.15;82.83
44751;BME280;30477;48.224;11.470;2022-09-25T04:19:12;95594.22;;;11.21;83.31
44751;BME280;30477;48.224;11.470;2022-09-25T04:21:39;95604.88;;;11.10;82.44
44751;BME280;30477;48.224;11.470;2022-09-25T04:24:04;95597.72;;;11.04;82.63
44751;BME280;30477;48.224;11.470;2022-09-25T04:26:48;95600.44;;;11.02;82.70
44751;BME280;30477;48.224;11.470;2022-09-25T04:29:16;95599.78;;;10.92;82.60
44751;BME280;30477;48.224;11.470;2022-09-25T04:31:42;95607.97;;;10.87;82.86
44751;BME280;30477;48.224;11.470;2022-09-25T04:34:07;95604.88;;;11.10;83.25
44751;BME280;30477;48.224;11.470;2022-09-25T04:36:32;95598.59;;;11.21;82.88
44751;BME280;30477;48.224;11.470;2022-09-25T04:38:57;95605.53;;;11.12;82.56
44751;BME280;30477;48.224;11.470;2022-09-25T04:41:22;95614.09;;;11.12;82.47
44751;BME280;30477;48.224;11.470;2022-09-25T04:43:48;95611.22;;;11.15;82.83
44751;BME280;30477;48.224;11.470;2022-09-25T04:46:13;95610.94;;;11.27;82.25
44751;BME280;30477;48.224;11.470;2022-09-25T04:48:38;95605.28;;;11.31;82.60
44751;BME280;30477;48.224;11.470;2022-09-25T04:51:04;95597.50;;;11.31;81.84
44751;BME280;30477;48.224;11.470;2022-09-25T04:53:30;95608.44;;;11.17;81.85
44751;BME280;30477;48.224;11.470;2022-09-25T04:56:02;95606.50;;;11.11;82.21
44751;BME280;30477;48.224;11.470;2022-09-25T04:58:28;95608.97;;;11.21;82.40
44751;BME280;30477;48.224;11.470;2022-09-25T05:00:53;95603.06;;;11.36;82.22
44751;BME280;30477;48.224;11.470;2022-09-25T05:03:18;95605.00;;;11.34;81.65
44751;BME280;30477;48.224;11.470;2022-09-25T05:05:43;95611.41;;;11.22;81.66
44751;BME280;30477;48.224;11.470;2022-09-25T05:08:09;95611.91;;;11.26;81.74
44751;BME280;30477;48.224;11.470;2022-09-25T05:10:35;95614.00;;;11.22;81.39
44751;BME280;30477;48.224;11.470;2022-09-25T05:13:03;95610.47;;;11.31;81.79
44751;BME280;30477;48.224;11.470;2022-09-25T05:15:29;95602.34;;;11.26;81.51
44751;BME280;30477;48.224;11.470;2022-09-25T05:18:37;95608.44;;;11.17;81.33
44751;BME280;30477;48.224;11.470;2022-09-25T05:20:44;95609.09;;;11.11;81.60
44751;BME280;30477;48.224;11.470;2022-09-25T05:23:09;95600.06;;;11.23;81.95
44751;BME280;30477;48.224;11.470;2022-09-25T05:25:34;95602.53;;;11.33;81.99
44751;BME280;30477;48.224;11.470;2022-09-25T05:28:00;95602.88;;;11.38;82.05
44751;BME280;30477;48.224;11.470;2022-09-25T05:30:26;95597.03;;;11.28;81.44
44751;BME280;30477;48.224;11.470;2022-09-25T05:32:52;95597.97;;;11.27;81.91
44751;BME280;30477;48.224;11.470;2022-09-25T05:35:21;95609.28;;;11.17;81.10
44751;BME280;30477;48.224;11.470;2022-09-25T05:37:47;95604.72;;;11.11;81.39
44751;BME280;30477;48.224;11.470;2022-09-25T05:40:12;95611.38;;;11.14;81.33
44751;BME280;30477;48.224;11.470;2022-09-25T05:42:39;95614.44;;;11.09;81.55
44751;BME280;30477;48.224;11.470;2022-09-25T05:45:05;95624.66;;;11.19;81.73
44751;BME280;30477;48.224;11.470;2022-09-25T05:47:30;95616.88;;;11.19;81.50
44751;BME280;30477;48.224;11.470;2022-09-25T05:49:55;95617.34;;;11.14;81.54
44751;BME280;30477;48.224;11.470;2022-09-25T05:52:20;95619.66;;;11.17;81.61
44751;BME280;30477;48.224;11.470;2022-09-25T05:54:45;95619.00;;;11.15;81.39
44751;BME280;30477;48.224;11.470;2022-09-25T05:57:11;95615.94;;;11.20;81.57
44751;BME280;30477;48.224;11.470;2022-09-25T05:59:36;95622.44;;;11.24;81.20
44751;BME280;30477;48.224;11.470;2022-09-25T06:02:01;95624.50;;;11.21;81.08
44751;BME280;30477;48.224;11.470;2022-09-25T06:04:26;95625.34;;;11.29;81.28
44751;BME280;30477;48.224;11.470;2022-09-25T06:06:51;95620.22;;;11.37;81.16
44751;BME280;30477;48.224;11.470;2022-09-25T06:09:17;95617.47;;;11.39;81.12
44751;BME280;30477;48.224;11.470;2022-09-25T06:11:42;95620.69;;;11.33;80.81
44751;BME280;30477;48.224;11.470;2022-09-25T06:14:11;95620.03;;;11.31;81.08
44751;BME280;30477;48.224;11.470;2022-09-25T06:16:37;95617.59;;;11.29;80.85
44751;BME280;30477;48.224;11.470;2022-09-25T06:19:02;95618.41;;;11.30;80.93
44751;BME280;30477;48.224;11.470;2022-09-25T06:21:27;95620.16;;;11.29;80.78
44751;BME280;30477;48.224;11.470;2022-09-25T06:23:53;95616.34;;;11.42;81.36
44751;BME280;30477;48.224;11.470;2022-09-25T06:26:18;95614.41;;;11.44;80.72
44751;BME280;30477;48.224;11.470;2022-09-25T06:28:43;95611.47;;;11.38;80.76
44751;BME280;30477;48.224;11.470;2022-09-25T06:31:08;95614.06;;;11.38;80.62
44751;BME280;30477;48.224;11.470;2022-09-25T06:33:34;95626.53;;;11.35;80.74
44751;BME280;30477;48.224;11.470;2022-09-25T06:35:59;95625.53;;;11.28;80.66
44751;BME280;30477;48.224;11.470;2022-09-25T06:38:25;95618.81;;;11.17;80.91
44751;BME280;30477;48.224;11.470;2022-09-25T06:40:50;95617.59;;;11.29;81.35
44751;BME280;30477;48.224;11.470;2022-09-25T06:43:15;95613.28;;;11.46;81.37
44751;BME280;30477;48.224;11.470;2022-09-25T06:45:41;95619.28;;;11.47;81.13
44751;BME280;30477;48.224;11.470;2022-09-25T06:48:07;95623.16;;;11.43;81.04
44751;BME280;30477;48.224;11.470;2022-09-25T06:50:36;95611.19;;;11.50;80.98
44751;BME280;30477;48.224;11.470;2022-09-25T06:53:02;95617.03;;;11.52;81.06
44751;BME280;30477;48.224;11.470;2022-09-25T06:55:28;95617.03;;;11.52;81.04
44751;BME280;30477;48.224;11.470;2022-09-25T06:57:53;95623.03;;;11.52;81.14
44751;BME280;30477;48.224;11.470;2022-09-25T07:00:18;95621.91;;;11.55;80.91
44751;BME280;30477;48.224;11.470;2022-09-25T07:02:43;95617.69;;;11.54;81.21
44751;BME280;30477;48.224;11.470;2022-09-25T07:05:27;95616.41;;;11.58;80.95
44751;BME280;30477;48.224;11.470;2022-09-25T07:07:53;95616.41;;;11.58;80.92
44751;BME280;30477;48.224;11.470;2022-09-25T07:10:18;95614.28;;;11.53;80.72
44751;BME280;30477;48.224;11.470;2022-09-25T07:12:43;95621.88;;;11.47;80.62
44751;BME280;30477;48.224;11.470;2022-09-25T07:15:08;95623.16;;;11.43;80.56
44751;BME280;30477;48.224;11.470;2022-09-25T07:17:35;95620.25;;;11.46;81.00
44751;BME280;30477;48.224;11.470;2022-09-25T07:20:00;95639.06;;;11.56;81.42
44751;BME280;30477;48.224;11.470;2022-09-25T07:22:26;95635.81;;;11.54;80.60
44751;BME280;30477;48.224;11.470;2022-09-25T07:24:51;95633.19;;;11.46;81.10
44751;BME280;30477;48.224;11.470;2022-09-25T07:27:16;95631.97;;;11.58;81.19
44751;BME280;30477;48.224;11.470;2022-09-25T07:29:41;95636.81;;;11.53;80.65
44751;BME280;30477;48.224;11.470;2022-09-25T07:32:07;95636.63;;;11.54;80.77
44751;BME280;30477;48.224;11.470;2022-09-25T07:34:33;95630.00;;;11.52;80.90
44751;BME280;30477;48.224;11.470;2022-09-25T07:36:59;95633.81;;;11.40;81.08
44751;BME280;30477;48.224;11.470;2022-09-25T07:39:24;95623.47;;;11.40;81.08
44751;BME280;30477;48.224;11.470;2022-09-25T07:41:49;95624.06;;;11.33;81.08
44751;BME280;30477;48.224;11.470;2022-09-25T07:44:17;95632.31;;;11.29;81.33
44751;BME280;30477;48.224;11.470;2022-09-25T07:46:43;95635.09;;;11.35;81.90
44751;BME280;30477;48.224;11.470;2022-09-25T07:49:09;95641.78;;;11.46;81.72
44751;BME280;30477;48.224;11.470;2022-09-25T07:51:35;95640.81;;;11.47;81.50
44751;BME280;30477;48.224;11.470;2022-09-25T07:54:00;95645.94;;;11.31;81.57
44751;BME280;30477;48.224;11.470;2022-09-25T07:56:25;95638.78;;;11.25;81.91
44751;BME280;30477;48.224;11.470;2022-09-25T07:58:53;95636.00;;;11.18;81.85
44751;BME280;30477;48.224;11.470;2022-09-25T08:01:19;95641.22;;;11.26;82.50
44751;BME280;30477;48.224;11.470;2022-09-25T08:03:44;95643.06;;;11.42;82.41
44751;BME280;30477;48.224;11.470;2022-09-25T08:06:10;95635.75;;;11.37;82.41
44751;BME280;30477;48.224;11.470;2022-09-25T08:08:36;95638.06;;;11.41;82.52
44751;BME280;30477;48.224;11.470;2022-09-25T08:11:02;95639.81;;;11.40;82.55
44751;BME280;30477;48.224;11.470;2022-09-25T08:13:28;95637.41;;;11.38;82.66
44751;BME280;30477;48.224;11.470;2022-09-25T08:15:54;95637.06;;;11.42;82.75
44751;BME280;30477;48.224;11.470;2022-09-25T08:18:20;95633.91;;;11.56;82.89
44751;BME280;30477;48.224;11.470;2022-09-25T08:20:45;95628.59;;;11.66;83.04
44751;BME280;30477;48.224;11.470;2022-09-25T08:23:10;95631.06;;;11.84;83.12
44751;BME280;30477;48.224;11.470;2022-09-25T08:25:35;95631.06;;;11.84;82.53
44751;BME280;30477;48.224;11.470;2022-09-25T08:28:01;95631.38;;;11.81;82.79
44751;BME280;30477;48.224;11.470;2022-09-25T08:30:27;95626.06;;;11.90;82.67
44751;BME280;30477;48.224;11.470;2022-09-25T08:32:53;95629.50;;;11.91;82.66
44751;BME280;30477;48.224;11.470;2022-09-25T08:35:18;95637.44;;;11.97;82.52
44751;BME280;30477;48.224;11.470;2022-09-25T08:37:43;95633.72;;;12.00;82.52
44751;BME280;30477;48.224;11.470;2022-09-25T08:40:19;95625.31;;;12.06;82.37
44751;BME280;30477;48.224;11.470;2022-09-25T08:42:48;95625.31;;;12.06;82.39
44751;BME280;30477;48.224;11.470;2022-09-25T08:45:28;95632.28;;;12.06;81.92
44751;BME280;30477;48.224;11.470;2022-09-25T08:48:18;95631.47;;;12.13;82.19
44751;BME280;30477;48.224;11.470;2022-09-25T08:51:03;95629.22;;;12.18;81.76
44751;BME280;30477;48.224;11.470;2022-09-25T08:53:32;95632.44;;;12.04;81.39
44751;BME280;30477;48.224;11.470;2022-09-25T08:55:58;95633.88;;;11.98;81.32
44751;BME280;30477;48.224;11.470;2022-09-25T08:58:39;95630.50;;;12.06;81.48
44751;BME280;30477;48.224;11.470;2022-09-25T09:01:08;95631.47;;;12.13;81.57
44751;BME280;30477;48.224;11.470;2022-09-25T09:03:36;95639.09;;;12.15;81.43
44751;BME280;30477;48.224;11.470;2022-09-25T09:06:04;95631.47;;;12.30;81.34
44751;BME280;30477;48.224;11.470;2022-09-25T09:08:32;95641.22;;;12.36;81.26
44751;BME280;30477;48.224;11.470;2022-09-25T09:11:00;95633.44;;;12.44;81.04
44751;BME280;30477;48.224;11.470;2022-09-25T09:13:40;95639.28;;;12.38;80.71
44751;BME280;30477;48.224;11.470;2022-09-25T09:16:22;95637.69;;;12.37;80.71
44751;BME280;30477;48.224;11.470;2022-09-25T09:18:52;95622.56;;;12.41;80.52
44751;BME280;30477;48.224;11.470;2022-09-25T09:21:20;95623.56;;;12.39;80.64
44751;BME280;30477;48.224;11.470;2022-09-25T09:28:59;95616.56;;;12.32;80.79
44751;BME280;30477;48.224;11.470;2022-09-25T09:31:35;95617.53;;;12.47;80.79
44751;BME280;30477;48.224;11.470;2022-09-25T09:34:14;95610.59;;;12.56;80.82
44751;BME280;30477;48.224;11.470;2022-09-25T09:44:33;95597.91;;;12.61;80.24
44751;BME280;30477;48.224;11.470;2022-09-25T09:49:29;95598.53;;;12.71;80.38
44751;BME280;30477;48.224;11.470;2022-09-25T09:52:02;95599.06;;;12.58;79.82
44751;BME280;30477;48.224;11.470;2022-09-25T09:54:43;95601.16;;;12.63;80.02
44751;BME280;30477;48.224;11.470;2022-09-25T09:57:14;95594.16;;;12.80;80.29
44751;BME280;30477;48.224;11.470;2022-09-25T09:59:48;95593.63;;;13.01;80.21
44751;BME280;30477;48.224;11.470;2022-09-25T10:02:20;95591.00;;;13.09;79.87
44751;BME280;30477;48.224;11.470;2022-09-25T10:04:48;95595.00;;;13.20;79.74
44751;BME280;30477;48.224;11.470;2022-09-25T10:07:15;95593.06;;;13.30;79.45
44751;BME280;30477;48.224;11.470;2022-09-25T10:09:42;95590.75;;;13.35;79.61
44751;BME280;30477;48.224;11.470;2022-09-25T10:12:11;95588.28;;;13.50;79.18
44751;BME280;30477;48.224;11.470;2022-09-25T10:14:40;95585.63;;;13.58;78.86
44751;BME280;30477;48.224;11.470;2022-09-25T10:17:06;95601.69;;;13.62;78.52
44751;BME280;30477;48.224;11.470;2022-09-25T10:19:57;95601.38;;;13.65;78.51
44751;BME280;30477;48.224;11.470;2022-09-25T10:22:43;95606.22;;;13.68;78.02
44751;BME280;30477;48.224;11.470;2022-09-25T10:25:06;95599.06;;;13.70;77.68
44751;BME280;30477;48.224;11.470;2022-09-25T10:27:41;95607.84;;;13.69;77.89
44751;BME280;30477;48.224;11.470;2022-09-25T10:30:13;95609.59;;;13.77;77.48
44751;BME280;30477;48.224;11.470;2022-09-25T10:35:14;95602.69;;;13.92;77.29
44751;BME280;30477;48.224;11.470;2022-09-25T10:37:40;95606.72;;;13.95;76.79
44751;BME280;30477;48.224;11.470;2022-09-25T10:40:06;95599.78;;;14.10;76.81
44751;BME280;30477;48.224;11.470;2022-09-25T10:42:41;95595.28;;;14.27;76.87
44751;BME280;30477;48.224;11.470;2022-09-25T10:47:47;95586.34;;;14.45;76.39
44751;BME280;30477;48.224;11.470;2022-09-25T10:50:32;95587.44;;;14.50;76.09
44751;BME280;30477;48.224;11.470;2022-09-25T10:52:57;95587.88;;;14.62;75.87
44751;BME280;30477;48.224;11.470;2022-09-25T10:57:52;95590.84;;;14.74;75.10
44751;BME280;30477;48.224;11.470;2022-09-25T11:00:20;95592.78;;;14.57;74.44
44751;BME280;30477;48.224;11.470;2022-09-25T11:02:47;95589.09;;;14.51;74.25
44751;BME280;30477;48.224;11.470;2022-09-25T11:05:17;95593.03;;;14.47;74.43
44751;BME280;30477;48.224;11.470;2022-09-25T11:07:51;95586.13;;;14.54;74.55
44751;BME280;30477;48.224;11.470;2022-09-25T11:10:19;95590.41;;;14.47;73.99
44751;BME280;30477;48.224;11.470;2022-09-25T11:12:45;95590.41;;;14.47;74.22
44751;BME280;30477;48.224;11.470;2022-09-25T11:15:11;95588.88;;;14.53;73.90
44751;BME280;30477;48.224;11.470;2022-09-25T11:17:42;95581.97;;;14.45;73.96
44751;BME280;30477;48.224;11.470;2022-09-25T11:22:40;95582.56;;;14.55;73.45
44751;BME280;30477;48.224;11.470;2022-09-25T11:25:10;95571.06;;;14.65;73.67
44751;BME280;30477;48.224;11.470;2022-09-25T11:27:39;95574.31;;;14.67;73.34
44751;BME280;30477;48.224;11.470;2022-09-25T11:30:11;95565.16;;;14.71;73.57
44751;BME280;30477;48.224;11.470;2022-09-25T11:35:17;95564.72;;;14.82;72.97
44751;BME280;30477;48.224;11.470;2022-09-25T11:37:48;95567.59;;;14.72;72.73
44751;BME280;30477;48.224;11.470;2022-09-25T11:43:11;95568.94;;;14.45;72.94
44751;BME280;30477;48.224;11.470;2022-09-25T11:45:40;95566.41;;;14.37;73.41
44751;BME280;30477;48.224;11.470;2022-09-25T11:56:08;95561.53;;;14.34;73.80
44751;BME280;30477;48.224;11.470;2022-09-25T11:58:40;95567.31;;;14.44;74.07
44751;BME280;30477;48.224;11.470;2022-09-25T12:01:17;95564.38;;;14.47;73.24
44751;BME280;30477;48.224;11.470;2022-09-25T12:03:51;95554.72;;;14.56;73.13
44751;BME280;30477;48.224;11.470;2022-09-25T12:06:25;95556.63;;;14.62;73.02
44751;BME280;30477;48.224;11.470;2022-09-25T12:09:00;95552.31;;;14.69;72.62
44751;BME280;30477;48.224;11.470;2022-09-25T12:14:18;95541.47;;;14.95;72.17
44751;BME280;30477;48.224;11.470;2022-09-25T12:19:14;95530.41;;;14.93;71.44
44751;BME280;30477;48.224;11.470;2022-09-25T12:31:59;95539.19;;;14.92;70.39
44751;BME280;30477;48.224;11.470;2022-09-25T12:34:46;95535.88;;;14.98;70.26
44751;BME280;30477;48.224;11.470;2022-09-25T12:37:18;95526.16;;;15.07;69.98
44751;BME280;30477;48.224;11.470;2022-09-25T12:39:57;95532.00;;;14.94;69.66
44751;BME280;30477;48.224;11.470;2022-09-25T12:42:33;95534.44;;;14.81;68.90
44751;BME280;30477;48.224;11.470;2022-09-25T12:47:46;95537.94;;;14.58;69.08
44751;BME280;30477;48.224;11.470;2022-09-25T12:50:16;95530.16;;;14.50;68.76
44751;BME280;30477;48.224;11.470;2022-09-25T12:52:53;95533.72;;;14.57;69.34
44751;BME280;30477;48.224;11.470;2022-09-25T12:55:22;95529.88;;;14.68;69.28
44751;BME280;30477;48.224;11.470;2022-09-25T13:00:24;95522.00;;;14.53;69.49
44751;BME280;30477;48.224;11.470;2022-09-25T13:02:57;95517.25;;;14.57;69.47
44751;BME280;30477;48.224;11.470;2022-09-25T13:10:30;95523.59;;;14.54;69.38
44751;BME280;30477;48.224;11.470;2022-09-25T13:12:58;95517.84;;;14.44;69.14
44751;BME280;30477;48.224;11.470;2022-09-25T13:15:26;95517.03;;;14.44;69.00
44751;BME280;30477;48.224;11.470;2022-09-25T13:17:52;95520.88;;;14.33;68.90
44751;BME280;30477;48.224;11.470;2022-09-25T13:22:57;95521.22;;;14.30;68.65
44751;BME280;30477;48.224;11.470;2022-09-25T13:25:23;95513.84;;;14.18;68.53
44751;BME280;30477;48.224;11.470;2022-09-25T13:27:49;95520.97;;;14.25;68.86
44751;BME280;30477;48.224;11.470;2022-09-25T13:30:27;95517.09;;;14.20;68.52
44751;BME280;30477;48.224;11.470;2022-09-25T13:32:54;95513.41;;;14.30;68.53
44751;BME280;30477;48.224;11.470;2022-09-25T13:35:20;95518.91;;;14.35;68.38
44751;BME280;30477;48.224;11.470;2022-09-25T13:37:46;95510.81;;;14.30;68.76
44751;BME280;30477;48.224;11.470;2022-09-25T13:40:15;95513.16;;;14.25;68.82
44751;BME280;30477;48.224;11.470;2022-09-25T13:45:45;95517.09;;;14.20;68.90
44751;BME280;30477;48.224;11.470;2022-09-25T13:48:11;95520.06;;;14.17;68.76
44751;BME280;30477;48.224;11.470;2022-09-25T13:50:40;95515.75;;;14.25;68.83
44751;BME280;30477;48.224;11.470;2022-09-25T13:58:19;95505.06;;;14.19;69.53
44751;BME280;30477;48.224;11.470;2022-09-25T14:05:56;95509.47;;;14.34;68.60
44751;BME280;30477;48.224;11.470;2022-09-25T14:08:21;95505.28;;;14.33;69.03
44751;BME280;30477;48.224;11.470;2022-09-25T14:10:49;95503.28;;;14.35;69.04
44751;BME280;30477;48.224;11.470;2022-09-25T14:13:15;95501.50;;;14.35;68.77
44751;BME280;30477;48.224;11.470;2022-09-25T14:15:43;95497.47;;;14.33;68.95
44751;BME280;30477;48.224;11.470;2022-09-25T14:18:14;95496.47;;;14.34;68.97
44751;BME280;30477;48.224;11.470;2022-09-25T14:20:41;95496.47;;;14.34;69.01
44751;BME280;30477;48.224;11.470;2022-09-25T14:25:41;95488.94;;;14.39;68.64
44751;BME280;30477;48.224;11.470;2022-09-25T14:28:17;95487.88;;;14.48;68.91
44751;BME280;30477;48.224;11.470;2022-09-25T14:30:47;95486.34;;;14.54;68.70
44751;BME280;30477;48.224;11.470;2022-09-25T14:35:47;95493.56;;;14.67;68.61
44751;BME280;30477;48.224;11.470;2022-09-25T14:41:02;95485.28;;;14.78;68.19
44751;BME280;30477;48.224;11.470;2022-09-25T14:46:17;95489.63;;;14.86;67.66
44751;BME280;30477;48.224;11.470;2022-09-25T14:48:54;95482.25;;;14.89;67.88